createdAt,value
2022-11-08T00:03:35.489Z,20.5
2022-11-08T00:13:41.562Z,20.5
2022-11-08T00:23:47.597Z,20.5
2022-11-08T00:33:55.535Z,20.5
2022-11-08T00:44:01.560Z,20.5
2022-11-08T00:54:07.640Z,20.5
2022-11-08T01:04:13.716Z,20.5
2022-11-08T01:14:19.740Z,20.5
2022-11-08T01:24:25.768Z,20.5
2022-11-08T01:34:31.842Z,20.4
2022-11-08T01:44:38.047Z,20.4
2022-11-08T01:54:43.934Z,20.4
2022-11-08T02:04:51.835Z,20.4
2022-11-08T02:14:57.917Z,20.4
2022-11-08T02:25:03.944Z,20.4
2022-11-08T02:35:11.881Z,20.4
2022-11-08T02:45:17.896Z,20.4
2022-11-08T02:55:23.976Z,20.4
2022-11-08T03:05:31.881Z,20.4
2022-11-08T03:15:39.862Z,20.4
2022-11-08T03:25:47.757Z,20.3
2022-11-08T03:35:53.820Z,20.3
2022-11-08T03:45:59.851Z,20.3
2022-11-08T03:56:05.928Z,20.3
2022-11-08T04:06:11.956Z,20.3
2022-11-08T04:16:18.219Z,20.4
2022-11-08T04:26:24.035Z,20.4
2022-11-08T04:36:30.137Z,20.5
2022-11-08T04:46:38.019Z,20.5
2022-11-08T04:56:44.103Z,20.5
2022-11-08T05:06:50.116Z,20.5
2022-11-08T05:16:56.202Z,20.5
2022-11-08T05:27:02.233Z,20.6
2022-11-08T05:37:08.285Z,20.7
2022-11-08T05:47:14.353Z,20.7
2022-11-08T05:57:22.081Z,20.7
2022-11-08T06:07:26.447Z,20.7
2022-11-08T06:17:32.496Z,20.7
2022-11-08T06:27:38.525Z,20.7
2022-11-08T06:37:44.588Z,20.8
2022-11-08T06:47:50.615Z,20.9
2022-11-08T06:57:56.680Z,21
2022-11-08T07:08:02.727Z,21.1
2022-11-08T07:18:08.863Z,21.1
2022-11-08T07:28:16.696Z,21.1
2022-11-08T07:38:22.783Z,21
2022-11-08T07:48:28.779Z,21
2022-11-08T07:58:34.873Z,21
2022-11-08T08:08:40.873Z,21
2022-11-08T08:18:46.980Z,21.1
2022-11-08T08:28:54.858Z,21.1
2022-11-08T08:39:02.834Z,21.1
2022-11-08T08:49:08.853Z,21.2
2022-11-08T09:09:22.832Z,21.1
2022-11-08T09:19:30.793Z,21.1
2022-11-08T09:29:36.812Z,21.2
2022-11-08T09:39:44.750Z,21.2
2022-11-08T09:49:50.765Z,21.3
2022-11-08T09:59:56.862Z,21.3
2022-11-08T10:10:02.921Z,21.3
2022-11-08T10:20:08.954Z,21.3
2022-11-08T10:30:14.982Z,21.3
2022-11-08T10:40:21.049Z,21.3
2022-11-08T10:50:27.170Z,21.3
2022-11-08T11:00:33.178Z,21.3
2022-11-08T11:10:39.152Z,21.4
2022-11-08T11:20:45.247Z,21.4
2022-11-08T11:30:51.250Z,21.4
2022-11-08T11:40:57.387Z,21.5
2022-11-08T11:51:03.429Z,21.5
2022-11-08T12:01:14.197Z,21.5
2022-11-08T12:11:15.480Z,21.5
2022-11-08T12:21:23.431Z,21.5
2022-11-08T12:31:29.443Z,21.6
2022-11-08T12:41:35.684Z,21.6
2022-11-08T12:51:41.528Z,21.7
2022-11-08T13:01:47.643Z,21.7
2022-11-08T13:11:53.645Z,21.8
2022-11-08T13:22:01.639Z,21.8
2022-11-08T13:32:07.621Z,21.8
2022-11-08T13:42:13.684Z,21.8
2022-11-08T13:52:21.588Z,21.8
2022-11-08T14:02:27.701Z,21.8
2022-11-08T14:12:33.695Z,21.8
2022-11-08T14:22:39.777Z,21.9
2022-11-08T14:32:45.767Z,21.9
2022-11-08T14:42:51.917Z,21.9
2022-11-08T14:52:57.944Z,21.9
2022-11-08T15:03:03.956Z,21.8
2022-11-08T15:13:09.974Z,21.8
2022-11-08T15:23:16.249Z,21.9
2022-11-08T15:33:23.973Z,21.8
2022-11-08T15:43:30.069Z,21.8
2022-11-08T15:53:36.043Z,21.8
2022-11-08T16:03:42.140Z,21.8
2022-11-08T16:13:48.148Z,21.8
2022-11-08T16:23:54.270Z,21.7
2022-11-08T16:34:02.119Z,21.7
2022-11-08T16:44:08.196Z,21.7
2022-11-08T16:54:14.215Z,21.7
2022-11-08T17:04:20.289Z,21.7
2022-11-08T17:14:26.336Z,21.7
2022-11-08T17:24:32.447Z,21.6
2022-11-08T17:34:38.402Z,21.6
2022-11-08T17:44:44.492Z,21.6
2022-11-08T17:54:53.094Z,21.6
2022-11-08T18:04:56.598Z,21.6
2022-11-08T18:15:02.615Z,21.6
2022-11-08T18:25:08.703Z,21.5
2022-11-08T18:35:14.705Z,21.5
2022-11-08T18:45:20.781Z,21.5
2022-11-08T18:55:26.801Z,21.5
2022-11-08T19:05:32.874Z,21.5
2022-11-08T19:15:38.961Z,21.5
2022-11-08T19:25:44.979Z,21.5
2022-11-08T19:35:50.989Z,21.4
2022-11-08T19:45:57.077Z,21.4
2022-11-08T19:56:03.098Z,21.4
2022-11-08T20:06:09.232Z,21.4
2022-11-08T20:16:15.205Z,21.4
2022-11-08T20:26:21.317Z,21.4
2022-11-08T20:36:31.802Z,21.4
2022-11-08T20:46:33.371Z,21.4
2022-11-08T20:56:39.384Z,21.4
2022-11-08T21:06:45.581Z,21.4
2022-11-08T21:26:59.448Z,21.3
2022-11-08T21:37:05.457Z,21.3
2022-11-08T21:47:11.544Z,21.3
2022-11-08T21:57:17.566Z,21.3
2022-11-08T22:07:23.834Z,21.3
2022-11-08T22:17:29.675Z,21.3
2022-11-08T22:27:35.736Z,21.3
2022-11-08T22:37:43.652Z,21.3
2022-11-08T22:47:49.752Z,21.2
2022-11-08T22:57:55.781Z,21.2
2022-11-08T23:08:01.800Z,21.2
2022-11-08T23:18:07.823Z,21.2
2022-11-08T23:28:13.913Z,21.2
2022-11-08T23:38:22.361Z,21.2
2022-11-08T23:48:26.015Z,21.2
2022-11-08T23:58:32.047Z,21.2
